createdAt,value
2019-03-18T00:00:43.817Z,4.10
2019-03-18T00:03:10.822Z,4.10
2019-03-18T00:05:37.419Z,4.10
2019-03-18T00:08:04.266Z,4.10
2019-03-18T00:10:32.364Z,4.00
2019-03-18T00:12:59.005Z,4.00
2019-03-18T00:15:25.673Z,3.90
2019-03-18T00:17:52.562Z,4.00
2019-03-18T00:20:19.277Z,3.90
2019-03-18T00:22:46.137Z,4.00
2019-03-18T00:25:12.989Z,4.00
2019-03-18T00:27:39.952Z,4.00
2019-03-18T00:30:08.783Z,3.90
2019-03-18T00:32:35.392Z,3.90
2019-03-18T00:35:02.137Z,3.80
2019-03-18T00:37:28.799Z,3.80
2019-03-18T00:39:55.724Z,3.80
2019-03-18T00:42:22.443Z,3.80
2019-03-18T00:44:49.185Z,3.90
2019-03-18T00:47:15.847Z,3.80
2019-03-18T00:49:42.496Z,3.80
2019-03-18T00:52:09.137Z,3.80
2019-03-18T00:54:35.998Z,3.80
2019-03-18T00:57:02.748Z,3.80
2019-03-18T00:59:29.430Z,3.80
2019-03-18T01:01:56.107Z,3.80
2019-03-18T01:04:23.004Z,3.80
2019-03-18T01:06:49.645Z,3.80
2019-03-18T01:09:16.300Z,3.80
2019-03-18T01:11:43.091Z,3.80
2019-03-18T01:14:10.879Z,3.80
2019-03-18T01:16:38.235Z,3.80
2019-03-18T01:19:04.931Z,3.80
2019-03-18T01:21:31.852Z,3.80
2019-03-18T01:23:58.757Z,3.80
2019-03-18T01:26:25.344Z,3.80
2019-03-18T01:28:52.159Z,3.80
2019-03-18T01:31:18.878Z,3.80
2019-03-18T01:33:45.588Z,3.80
2019-03-18T01:36:12.203Z,3.80
2019-03-18T01:38:38.851Z,3.80
2019-03-18T01:41:05.472Z,3.80
2019-03-18T01:43:32.114Z,3.80
2019-03-18T01:45:58.699Z,3.80
2019-03-18T01:48:26.433Z,3.80
2019-03-18T01:50:53.239Z,3.80
2019-03-18T01:53:20.060Z,3.80
2019-03-18T01:55:46.757Z,3.80
2019-03-18T01:58:13.371Z,3.70
2019-03-18T02:00:40.125Z,3.70
2019-03-18T02:03:06.724Z,3.70
2019-03-18T02:05:33.320Z,3.70
2019-03-18T02:08:00.069Z,3.70
2019-03-18T02:10:26.660Z,3.70
2019-03-18T02:12:53.263Z,3.70
2019-03-18T02:15:20.260Z,3.70
2019-03-18T02:17:46.917Z,3.70
2019-03-18T02:20:13.531Z,3.60
2019-03-18T02:22:40.267Z,3.60
2019-03-18T02:25:07.054Z,3.70
2019-03-18T02:27:33.640Z,3.70
2019-03-18T02:30:00.477Z,3.70
2019-03-18T02:32:27.255Z,3.70
2019-03-18T02:34:53.841Z,3.70
2019-03-18T02:37:20.485Z,3.70
2019-03-18T02:39:47.081Z,3.70
2019-03-18T02:42:13.711Z,3.70
2019-03-18T02:44:40.763Z,3.60
2019-03-18T02:47:07.456Z,3.50
2019-03-18T02:49:34.118Z,3.60
2019-03-18T02:52:01.064Z,3.60
2019-03-18T02:54:28.465Z,3.60
2019-03-18T02:56:55.504Z,3.60
2019-03-18T02:59:22.264Z,3.60
2019-03-18T03:01:48.927Z,3.60
2019-03-18T03:04:15.937Z,3.60
2019-03-18T03:06:42.769Z,3.60
2019-03-18T03:09:09.445Z,3.60
2019-03-18T03:11:36.152Z,3.50
2019-03-18T03:14:03.070Z,3.50
2019-03-18T03:16:29.678Z,3.50
2019-03-18T03:18:56.358Z,3.60
2019-03-18T03:21:23.027Z,3.50
2019-03-18T03:23:49.714Z,3.50
2019-03-18T03:26:16.340Z,3.50
2019-03-18T03:28:43.083Z,3.50
2019-03-18T03:31:09.801Z,3.50
2019-03-18T03:33:36.526Z,3.50
2019-03-18T03:36:03.344Z,3.50
2019-03-18T03:38:30.006Z,3.50
2019-03-18T03:40:56.728Z,3.50
2019-03-18T03:43:23.360Z,3.50
2019-03-18T03:45:50.123Z,3.40
2019-03-18T03:48:16.728Z,3.40
2019-03-18T03:50:43.495Z,3.40
2019-03-18T03:53:10.097Z,3.40
2019-03-18T03:55:36.882Z,3.40
2019-03-18T03:58:03.856Z,3.40
2019-03-18T04:00:30.663Z,3.40
2019-03-18T04:02:57.370Z,3.40
2019-03-18T04:05:24.070Z,3.50
2019-03-18T04:07:50.657Z,3.50
2019-03-18T04:10:17.339Z,3.50
2019-03-18T04:12:44.179Z,3.50
2019-03-18T04:15:10.840Z,3.50
2019-03-18T04:17:37.598Z,3.40
2019-03-18T04:20:05.182Z,3.50
2019-03-18T04:22:32.081Z,3.50
2019-03-18T04:24:58.727Z,3.50
2019-03-18T04:27:25.425Z,3.60
2019-03-18T04:29:52.141Z,3.70
2019-03-18T04:32:18.764Z,3.70
2019-03-18T04:34:45.372Z,3.70
2019-03-18T04:37:12.066Z,3.60
2019-03-18T04:39:38.742Z,3.60
2019-03-18T04:42:05.394Z,3.70
2019-03-18T04:44:32.039Z,3.70
2019-03-18T04:46:58.828Z,3.80
2019-03-18T04:49:25.505Z,3.90
2019-03-18T04:51:52.201Z,4.00
2019-03-18T04:54:18.860Z,4.00
2019-03-18T04:56:45.670Z,4.00
2019-03-18T04:59:12.314Z,4.00
2019-03-18T05:01:38.913Z,4.00
2019-03-18T05:04:05.600Z,4.00
2019-03-18T05:06:32.249Z,4.00
2019-03-18T05:08:58.872Z,4.10
2019-03-18T05:11:25.865Z,4.10
2019-03-18T05:13:52.620Z,4.20
2019-03-18T05:16:19.370Z,4.20
2019-03-18T05:18:45.977Z,4.20
2019-03-18T05:21:12.669Z,4.30
2019-03-18T05:23:39.657Z,4.30
2019-03-18T05:26:06.369Z,4.30
2019-03-18T05:28:33.026Z,4.40
2019-03-18T05:30:59.765Z,4.50
2019-03-18T05:33:26.510Z,4.40
2019-03-18T05:35:53.238Z,4.40
2019-03-18T05:38:19.947Z,4.40
2019-03-18T05:40:46.599Z,4.40
2019-03-18T05:43:13.229Z,4.50
2019-03-18T05:45:39.824Z,4.50
2019-03-18T05:48:06.845Z,4.50
2019-03-18T05:50:33.495Z,4.50
2019-03-18T05:53:00.138Z,4.50
2019-03-18T05:55:26.760Z,4.50
2019-03-18T05:57:53.409Z,4.50
2019-03-18T06:00:20.092Z,4.50
2019-03-18T06:02:47.369Z,4.50
2019-03-18T06:05:14.135Z,4.50
2019-03-18T06:07:40.736Z,4.40
2019-03-18T06:10:07.656Z,4.50
2019-03-18T06:12:34.304Z,4.50
2019-03-18T06:15:00.956Z,4.50
2019-03-18T06:17:27.568Z,4.50
2019-03-18T06:19:54.261Z,4.60
2019-03-18T06:22:20.857Z,4.60
2019-03-18T06:24:47.492Z,4.60
2019-03-18T06:27:14.121Z,4.70
2019-03-18T06:29:40.723Z,4.70
2019-03-18T06:32:07.377Z,4.70
2019-03-18T06:34:33.980Z,4.70
2019-03-18T06:37:00.574Z,4.70
2019-03-18T06:39:27.317Z,4.80
2019-03-18T06:41:54.017Z,4.90
2019-03-18T06:44:20.626Z,4.80
2019-03-18T06:46:47.312Z,4.90
2019-03-18T06:49:13.936Z,4.90
2019-03-18T06:51:40.523Z,4.90
2019-03-18T06:54:07.355Z,4.90
2019-03-18T06:56:33.939Z,4.90
2019-03-18T06:59:00.533Z,4.90
2019-03-18T07:01:27.174Z,4.90
2019-03-18T07:03:53.759Z,5.00
2019-03-18T07:06:20.357Z,5.10
2019-03-18T07:08:46.983Z,5.10
2019-03-18T07:11:13.622Z,5.20
2019-03-18T07:13:40.212Z,5.30
2019-03-18T07:16:07.104Z,5.40
2019-03-18T07:18:33.815Z,5.50
2019-03-18T07:21:00.528Z,5.50
2019-03-18T07:23:27.452Z,5.60
2019-03-18T07:25:54.080Z,5.60
2019-03-18T07:28:20.668Z,5.70
2019-03-18T07:30:47.330Z,5.70
2019-03-18T07:33:13.926Z,5.70
2019-03-18T07:35:40.523Z,5.60
2019-03-18T07:38:07.194Z,5.70
2019-03-18T07:40:33.821Z,5.70
2019-03-18T07:43:00.433Z,5.80
2019-03-18T07:45:27.090Z,6.00
2019-03-18T07:47:53.745Z,6.10
2019-03-18T07:50:20.468Z,6.20
2019-03-18T07:52:47.245Z,6.00
2019-03-18T07:55:13.869Z,6.00
2019-03-18T07:57:40.474Z,6.10
2019-03-18T08:00:08.128Z,6.20
2019-03-18T08:02:34.756Z,6.30
2019-03-18T08:05:01.502Z,6.30
2019-03-18T08:07:28.253Z,6.30
2019-03-18T08:09:54.984Z,6.30
2019-03-18T08:12:21.645Z,6.30
2019-03-18T08:14:48.304Z,6.30
2019-03-18T08:17:14.895Z,6.20
2019-03-18T08:19:41.552Z,6.10
2019-03-18T08:22:08.175Z,6.10
2019-03-18T08:24:34.860Z,6.20
2019-03-18T08:27:01.512Z,6.20
2019-03-18T08:29:28.565Z,6.20
2019-03-18T08:31:55.269Z,6.20
2019-03-18T08:34:21.872Z,6.20
2019-03-18T08:36:48.592Z,6.20
2019-03-18T08:39:15.308Z,6.40
2019-03-18T08:41:41.957Z,6.50
2019-03-18T08:44:08.705Z,6.60
2019-03-18T08:46:35.306Z,6.60
2019-03-18T08:49:02.619Z,6.60
2019-03-18T08:51:29.696Z,6.60
2019-03-18T08:53:56.291Z,6.60
2019-03-18T08:56:22.967Z,6.70
2019-03-18T08:58:49.622Z,6.70
2019-03-18T09:01:16.531Z,6.90
2019-03-18T09:03:43.170Z,6.90
2019-03-18T09:06:09.798Z,6.80
2019-03-18T09:08:36.507Z,6.90
2019-03-18T09:11:03.534Z,7.00
2019-03-18T09:13:32.117Z,6.90
2019-03-18T09:15:59.045Z,6.90
2019-03-18T09:18:25.729Z,7.00
2019-03-18T09:20:52.392Z,7.00
2019-03-18T09:23:19.044Z,7.00
2019-03-18T09:25:45.640Z,7.20
2019-03-18T09:28:12.247Z,7.20
2019-03-18T09:30:38.848Z,7.70
2019-03-18T09:33:05.484Z,8.30
2019-03-18T09:35:32.084Z,8.70
2019-03-18T09:37:58.716Z,8.70
2019-03-18T09:40:25.387Z,8.60
2019-03-18T09:42:52.125Z,9.00
2019-03-18T09:45:18.857Z,9.40
2019-03-18T09:47:45.576Z,9.40
2019-03-18T09:50:13.321Z,9.20
2019-03-18T09:52:40.929Z,9.20
2019-03-18T09:55:07.996Z,8.80
2019-03-18T09:57:34.736Z,8.20
2019-03-18T10:00:01.550Z,7.90
2019-03-18T10:02:28.267Z,7.60
2019-03-18T10:04:54.915Z,7.60
2019-03-18T10:07:21.561Z,7.50
2019-03-18T10:09:48.456Z,7.50
2019-03-18T10:12:15.160Z,7.50
2019-03-18T10:14:41.812Z,7.60
2019-03-18T10:17:09.966Z,7.80
2019-03-18T10:19:37.104Z,7.80
2019-03-18T10:22:03.827Z,7.90
2019-03-18T10:24:30.505Z,8.00
2019-03-18T10:26:57.228Z,7.90
2019-03-18T10:29:24.973Z,8.00
2019-03-18T10:31:51.728Z,7.90
2019-03-18T10:34:18.955Z,7.80
2019-03-18T10:36:45.602Z,8.10
2019-03-18T10:39:12.382Z,8.80
2019-03-18T10:41:39.031Z,9.20
2019-03-18T10:44:06.024Z,9.30
2019-03-18T10:46:32.666Z,9.80
2019-03-18T10:48:59.317Z,10.60
2019-03-18T10:51:25.973Z,10.60
2019-03-18T10:53:54.239Z,10.30
2019-03-18T10:56:20.901Z,10.00
2019-03-18T10:58:48.350Z,10.00
2019-03-18T11:01:14.982Z,9.70
2019-03-18T11:03:41.810Z,9.30
2019-03-18T11:06:08.636Z,9.10
2019-03-18T11:08:35.332Z,9.20
2019-03-18T11:11:02.036Z,9.60
2019-03-18T11:13:28.679Z,9.60
2019-03-18T11:15:55.337Z,9.40
2019-03-18T11:18:22.018Z,9.40
2019-03-18T11:20:48.960Z,9.30
2019-03-18T11:23:15.656Z,9.10
2019-03-18T11:25:42.367Z,8.90
2019-03-18T11:28:09.051Z,8.30
2019-03-18T11:30:36.165Z,8.00
2019-03-18T11:33:02.818Z,7.50
2019-03-18T11:35:29.546Z,7.40
2019-03-18T11:37:56.221Z,7.50
2019-03-18T11:40:22.886Z,7.60
2019-03-18T11:42:49.807Z,7.90
2019-03-18T11:45:16.922Z,7.90
2019-03-18T11:47:43.567Z,7.90
2019-03-18T11:50:11.812Z,8.50
2019-03-18T11:52:38.759Z,8.90
2019-03-18T11:55:07.105Z,9.00
2019-03-18T11:57:33.789Z,8.90
2019-03-18T12:00:01.586Z,8.90
2019-03-18T12:02:28.389Z,8.90
2019-03-18T12:04:57.633Z,8.70
2019-03-18T12:07:24.394Z,8.50
2019-03-18T12:09:52.141Z,8.30
2019-03-18T12:12:18.768Z,8.20
2019-03-18T12:14:45.396Z,8.20
2019-03-18T12:17:12.040Z,8.30
2019-03-18T12:19:38.698Z,8.50
2019-03-18T12:22:05.726Z,8.90
2019-03-18T12:24:32.458Z,9.70
2019-03-18T12:26:59.183Z,10.40
2019-03-18T12:29:25.777Z,10.70
2019-03-18T12:31:53.524Z,11.10
2019-03-18T12:34:20.213Z,10.90
2019-03-18T12:36:46.942Z,10.20
2019-03-18T12:39:13.784Z,10.20
2019-03-18T12:41:40.530Z,10.60
2019-03-18T12:44:07.256Z,11.20
2019-03-18T12:46:34.014Z,10.60
2019-03-18T12:49:00.721Z,10.10
2019-03-18T12:51:27.407Z,9.90
2019-03-18T12:53:54.094Z,10.20
2019-03-18T12:56:20.797Z,10.70
2019-03-18T12:58:48.136Z,10.90
2019-03-18T13:01:15.941Z,10.60
2019-03-18T13:03:43.589Z,10.20
2019-03-18T13:06:11.438Z,9.40
2019-03-18T13:08:38.089Z,8.60
2019-03-18T13:11:04.849Z,8.60
2019-03-18T13:13:31.591Z,8.90
2019-03-18T13:15:58.300Z,9.20
2019-03-18T13:18:27.001Z,9.40
2019-03-18T13:20:53.624Z,9.60
2019-03-18T13:23:20.368Z,10.00
2019-03-18T13:25:47.025Z,10.20
2019-03-18T13:28:13.736Z,10.20
2019-03-18T13:30:40.701Z,10.20
2019-03-18T13:33:07.362Z,10.30
2019-03-18T13:35:34.167Z,10.40
2019-03-18T13:38:01.132Z,9.80
2019-03-18T13:40:30.043Z,9.60
2019-03-18T13:42:57.343Z,9.60
2019-03-18T13:45:24.055Z,9.60
2019-03-18T13:47:50.735Z,9.60
2019-03-18T13:50:17.888Z,9.40
2019-03-18T13:52:44.640Z,9.30
2019-03-18T13:55:12.048Z,9.20
2019-03-18T13:57:38.789Z,9.20
2019-03-18T14:00:08.003Z,9.10
2019-03-18T14:02:34.908Z,8.60
2019-03-18T14:05:01.638Z,8.70
2019-03-18T14:07:29.470Z,9.10
2019-03-18T14:09:56.220Z,9.40
2019-03-18T14:12:22.907Z,9.70
2019-03-18T14:14:50.567Z,10.00
2019-03-18T14:17:17.314Z,10.10
2019-03-18T14:19:45.046Z,10.30
2019-03-18T14:22:12.971Z,10.50
2019-03-18T14:24:39.769Z,10.50
2019-03-18T14:27:06.604Z,10.30
2019-03-18T14:29:33.556Z,10.40
2019-03-18T14:32:00.289Z,10.50
2019-03-18T14:34:27.275Z,10.10
2019-03-18T14:36:54.077Z,9.80
2019-03-18T14:39:20.704Z,9.80
2019-03-18T14:41:48.385Z,10.00
2019-03-18T14:44:15.107Z,10.40
2019-03-18T14:46:42.481Z,10.50
2019-03-18T14:49:09.321Z,10.50
2019-03-18T14:51:45.368Z,10.50
2019-03-18T14:54:05.214Z,10.30
2019-03-18T14:56:31.893Z,10.10
2019-03-18T14:58:59.109Z,9.70
2019-03-18T15:01:25.818Z,9.40
2019-03-18T15:03:52.654Z,9.40
2019-03-18T15:06:19.459Z,9.60
2019-03-18T15:08:46.092Z,9.50
2019-03-18T15:11:12.720Z,9.30
2019-03-18T15:13:39.364Z,9.20
2019-03-18T15:16:06.507Z,9.00
2019-03-18T15:18:35.790Z,9.10
2019-03-18T15:21:04.227Z,9.10
2019-03-18T15:23:31.939Z,9.10
2019-03-18T15:26:00.443Z,8.90
2019-03-18T15:28:28.813Z,8.70
2019-03-18T15:30:57.895Z,8.50
2019-03-18T15:33:26.688Z,8.20
2019-03-18T15:35:54.606Z,8.00
2019-03-18T15:38:22.795Z,7.80
2019-03-18T15:40:50.623Z,7.60
2019-03-18T15:43:18.611Z,7.50
2019-03-18T15:45:46.922Z,7.30
2019-03-18T15:48:15.724Z,6.90
2019-03-18T15:50:43.577Z,6.70
2019-03-18T15:53:11.443Z,6.60
2019-03-18T15:55:39.067Z,6.50
2019-03-18T15:58:06.607Z,6.40
2019-03-18T16:00:34.435Z,6.40
2019-03-18T16:03:04.306Z,6.30
2019-03-18T16:05:31.307Z,6.20
2019-03-18T16:07:58.108Z,6.20
2019-03-18T16:10:24.828Z,6.20
2019-03-18T16:12:51.602Z,6.20
2019-03-18T16:15:18.527Z,6.20
2019-03-18T16:17:45.465Z,6.20
2019-03-18T16:20:13.371Z,6.20
2019-03-18T16:22:40.353Z,6.20
2019-03-18T16:25:08.728Z,6.20
2019-03-18T16:27:36.267Z,6.20
2019-03-18T16:30:04.995Z,6.20
2019-03-18T16:32:32.123Z,6.30
2019-03-18T16:34:58.941Z,6.30
2019-03-18T16:37:25.628Z,6.30
2019-03-18T16:39:52.264Z,6.50
2019-03-18T16:42:18.928Z,6.50
2019-03-18T16:44:45.528Z,6.50
2019-03-18T16:47:12.159Z,6.60
2019-03-18T16:49:38.824Z,6.60
2019-03-18T16:52:05.473Z,6.50
2019-03-18T16:54:32.234Z,6.40
2019-03-18T16:56:58.964Z,6.30
2019-03-18T16:59:25.664Z,6.30
2019-03-18T17:01:52.382Z,6.20
2019-03-18T17:04:19.197Z,6.30
2019-03-18T17:06:46.106Z,6.20
2019-03-18T17:09:12.857Z,6.30
2019-03-18T17:11:39.646Z,6.30
2019-03-18T17:14:06.905Z,6.20
2019-03-18T17:16:33.544Z,6.10
2019-03-18T17:19:00.157Z,6.20
2019-03-18T17:21:26.771Z,6.30
2019-03-18T17:23:53.638Z,6.40
2019-03-18T17:26:20.281Z,6.20
2019-03-18T17:28:46.967Z,5.90
2019-03-18T17:31:13.671Z,5.70
2019-03-18T17:33:40.296Z,5.30
2019-03-18T17:36:06.898Z,5.10
2019-03-18T17:38:33.547Z,4.90
2019-03-18T17:41:00.705Z,4.80
2019-03-18T17:43:27.439Z,4.50
2019-03-18T17:45:54.133Z,4.40
2019-03-18T17:50:49.282Z,4.10
2019-03-18T17:53:15.897Z,4.00
2019-03-18T17:55:42.619Z,4.00
2019-03-18T17:58:10.451Z,4.00
2019-03-18T18:00:41.298Z,3.90
2019-03-18T18:03:07.987Z,3.90
2019-03-18T18:05:34.564Z,3.90
2019-03-18T18:08:01.202Z,3.80
2019-03-18T18:10:27.857Z,3.90
2019-03-18T18:12:54.558Z,3.80
2019-03-18T18:15:22.324Z,3.90
2019-03-18T18:17:49.040Z,4.00
2019-03-18T18:20:15.820Z,4.10
2019-03-18T18:22:42.580Z,4.20
2019-03-18T18:25:09.329Z,4.30
2019-03-18T18:27:37.043Z,4.40
2019-03-18T18:30:04.231Z,4.50
2019-03-18T18:32:30.863Z,4.50
2019-03-18T18:34:57.631Z,4.60
2019-03-18T18:37:24.411Z,4.60
2019-03-18T18:39:51.068Z,4.70
2019-03-18T18:42:17.838Z,4.70
2019-03-18T18:44:44.520Z,4.70
2019-03-18T18:47:11.192Z,4.70
2019-03-18T18:49:37.796Z,4.70
2019-03-18T18:52:04.466Z,4.70
2019-03-18T18:54:31.076Z,4.80
2019-03-18T18:56:59.761Z,4.80
2019-03-18T18:59:26.443Z,5.00
2019-03-18T19:01:53.230Z,5.00
2019-03-18T19:04:19.845Z,5.00
2019-03-18T19:06:46.579Z,5.00
2019-03-18T19:09:14.422Z,5.00
2019-03-18T19:11:46.871Z,5.00
2019-03-18T19:14:13.522Z,5.00
2019-03-18T19:16:41.217Z,5.00
2019-03-18T19:19:09.861Z,5.00
2019-03-18T19:21:36.521Z,5.00
2019-03-18T19:24:03.485Z,5.00
2019-03-18T19:26:30.234Z,4.90
2019-03-18T19:28:56.954Z,4.90
2019-03-18T19:31:23.909Z,4.80
2019-03-18T19:33:50.930Z,4.70
2019-03-18T19:36:17.932Z,4.80
2019-03-18T19:38:44.624Z,4.80
2019-03-18T19:41:11.285Z,4.80
2019-03-18T19:43:38.089Z,4.70
2019-03-18T19:46:04.721Z,4.70
2019-03-18T19:48:31.399Z,4.70
2019-03-18T19:50:58.153Z,4.70
2019-03-18T19:53:25.780Z,4.70
2019-03-18T19:55:52.433Z,4.70
2019-03-18T19:58:19.087Z,4.70
2019-03-18T20:00:45.806Z,4.80
2019-03-18T20:03:12.476Z,4.80
2019-03-18T20:05:39.141Z,4.70
2019-03-18T20:08:05.753Z,4.70
2019-03-18T20:10:32.397Z,4.60
2019-03-18T20:12:59.083Z,4.50
2019-03-18T20:15:25.888Z,4.50
2019-03-18T20:17:52.497Z,4.40
2019-03-18T20:20:19.249Z,4.40
2019-03-18T20:22:46.340Z,4.40
2019-03-18T20:25:13.061Z,4.40
2019-03-18T20:27:39.931Z,4.30
2019-03-18T20:30:08.963Z,4.30
2019-03-18T20:32:35.664Z,4.30
2019-03-18T20:35:03.080Z,4.20
2019-03-18T20:37:29.792Z,4.20
2019-03-18T20:39:56.445Z,4.20
2019-03-18T20:42:23.051Z,4.10
2019-03-18T20:44:49.689Z,4.10
2019-03-18T20:47:16.351Z,4.10
2019-03-18T20:49:43.067Z,4.10
2019-03-18T20:52:16.830Z,4.20
2019-03-18T20:54:41.455Z,4.10
2019-03-18T20:57:07.865Z,4.10
2019-03-18T20:59:34.612Z,4.20
2019-03-18T21:02:02.383Z,4.20
2019-03-18T21:04:31.185Z,4.20
2019-03-18T21:06:59.667Z,4.20
2019-03-18T21:09:26.397Z,4.30
2019-03-18T21:11:53.127Z,4.30
2019-03-18T21:14:19.731Z,4.30
2019-03-18T21:16:46.416Z,4.30
2019-03-18T21:19:13.064Z,4.30
2019-03-18T21:21:39.715Z,4.20
2019-03-18T21:24:06.361Z,4.10
2019-03-18T21:26:32.963Z,4.10
2019-03-18T21:29:00.646Z,4.20
2019-03-18T21:31:27.620Z,4.30
2019-03-18T21:33:54.346Z,4.20
2019-03-18T21:36:36.931Z,4.30
2019-03-18T21:38:49.882Z,4.20
2019-03-18T21:41:17.728Z,4.10
2019-03-18T21:43:44.416Z,4.10
2019-03-18T21:46:11.016Z,4.10
2019-03-18T21:48:37.648Z,4.10
2019-03-18T21:51:04.373Z,4.00
2019-03-18T21:53:30.967Z,4.00
2019-03-18T21:55:57.563Z,4.00
2019-03-18T21:58:24.282Z,4.00
2019-03-18T22:00:50.896Z,4.10
2019-03-18T22:03:17.533Z,4.10
2019-03-18T22:05:44.181Z,4.10
2019-03-18T22:08:10.817Z,4.20
2019-03-18T22:10:37.584Z,4.20
2019-03-18T22:13:04.464Z,4.20
2019-03-18T22:15:31.595Z,4.30
2019-03-18T22:17:58.468Z,4.40
2019-03-18T22:20:25.067Z,4.40
2019-03-18T22:22:51.681Z,4.50
2019-03-18T22:25:18.324Z,4.50
2019-03-18T22:27:45.086Z,4.50
2019-03-18T22:30:11.994Z,4.50
2019-03-18T22:32:38.637Z,4.40
2019-03-18T22:35:05.448Z,4.50
2019-03-18T22:37:32.082Z,4.40
2019-03-18T22:39:58.730Z,4.50
2019-03-18T22:42:25.517Z,4.50
2019-03-18T22:44:52.184Z,4.50
2019-03-18T22:47:19.046Z,4.40
2019-03-18T22:49:46.022Z,4.40
2019-03-18T22:52:12.655Z,4.40
2019-03-18T22:54:39.346Z,4.40
2019-03-18T22:57:05.960Z,4.40
2019-03-18T22:59:32.804Z,4.40
2019-03-18T23:01:59.537Z,4.30
2019-03-18T23:04:26.290Z,4.40
2019-03-18T23:06:53.004Z,4.40
2019-03-18T23:09:19.729Z,4.40
2019-03-18T23:11:46.339Z,4.50
2019-03-18T23:14:12.996Z,4.40
2019-03-18T23:16:39.808Z,4.40
2019-03-18T23:19:07.782Z,4.50
2019-03-18T23:21:34.426Z,4.60
2019-03-18T23:24:01.091Z,4.60
2019-03-18T23:26:27.729Z,4.60
2019-03-18T23:28:54.321Z,4.60
2019-03-18T23:31:20.946Z,4.60
2019-03-18T23:33:47.578Z,4.50
2019-03-18T23:36:14.158Z,4.60
2019-03-18T23:38:40.802Z,4.60
2019-03-18T23:41:08.491Z,4.60
2019-03-18T23:43:37.209Z,4.60
2019-03-18T23:46:03.788Z,4.60
2019-03-18T23:48:30.536Z,4.60
2019-03-18T23:50:57.148Z,4.60
2019-03-18T23:53:23.803Z,4.60
2019-03-18T23:55:50.563Z,4.60
2019-03-18T23:58:17.180Z,4.60
